sensor_id;sensor_type;location;lat;lon;timestamp;temperature;humidity
56542;DHT22;42438;53.174;6.730;2023-03-02T00:02:28;2.50;99.90
56542;DHT22;42438;53.174;6.730;2023-03-02T00:05:00;2.40;99.90
56542;DHT22;42438;53.174;6.730;2023-03-02T00:07:32;2.40;99.90
56542;DHT22;42438;53.174;6.730;2023-03-02T00:10:04;2.30;99.90
56542;DHT22;42438;53.174;6.730;2023-03-02T00:12:35;2.50;99.90
56542;DHT22;42438;53.174;6.730;2023-03-02T00:15:06;2.30;99.90
56542;DHT22;42438;53.174;6.730;2023-03-02T00:17:37;2.20;99.90
56542;DHT22;42438;53.174;6.730;2023-03-02T00:20:08;2.20;99.90
56542;DHT22;42438;53.174;6.730;2023-03-02T00:22:43;2.20;99.90
56542;DHT22;42438;53.174;6.730;2023-03-02T00:25:14;2.30;99.90
56542;DHT22;42438;53.174;6.730;2023-03-02T00:27:45;2.20;99.90
56542;DHT22;42438;53.174;6.730;2023-03-02T00:30:16;2.10;99.90
56542;DHT22;42438;53.174;6.730;2023-03-02T00:32:47;2.20;99.90
56542;DHT22;42438;53.174;6.730;2023-03-02T00:35:18;2.10;99.90
56542;DHT22;42438;53.174;6.730;2023-03-02T00:37:48;2.30;99.90
56542;DHT22;42438;53.174;6.730;2023-03-02T00:40:19;2.50;99.90
56542;DHT22;42438;53.174;6.730;2023-03-02T00:42:50;2.90;99.90
56542;DHT22;42438;53.174;6.730;2023-03-02T00:45:20;2.10;99.90
56542;DHT22;42438;53.174;6.730;2023-03-02T00:47:51;2.00;99.90
56542;DHT22;42438;53.174;6.730;2023-03-02T00:50:22;2.10;99.90
56542;DHT22;42438;53.174;6.730;2023-03-02T00:52:52;2.00;99.90
56542;DHT22;42438;53.174;6.730;2023-03-02T00:55:23;1.90;99.90
56542;DHT22;42438;53.174;6.730;2023-03-02T00:57:53;2.00;99.90
56542;DHT22;42438;53.174;6.730;2023-03-02T01:00:24;2.80;99.90
56542;DHT22;42438;53.174;6.730;2023-03-02T01:02:58;2.30;99.90
56542;DHT22;42438;53.174;6.730;2023-03-02T01:05:28;2.00;99.90
56542;DHT22;42438;53.174;6.730;2023-03-02T01:07:59;2.10;99.90
56542;DHT22;42438;53.174;6.730;2023-03-02T01:10:31;2.00;99.90
56542;DHT22;42438;53.174;6.730;2023-03-02T01:13:02;2.10;99.90
56542;DHT22;42438;53.174;6.730;2023-03-02T01:15:33;1.90;99.90
56542;DHT22;42438;53.174;6.730;2023-03-02T01:18:04;1.90;99.90
56542;DHT22;42438;53.174;6.730;2023-03-02T01:20:35;2.00;99.90
56542;DHT22;42438;53.174;6.730;2023-03-02T01:23:05;1.90;99.90
56542;DHT22;42438;53.174;6.730;2023-03-02T01:25:36;2.10;99.90
56542;DHT22;42438;53.174;6.730;2023-03-02T01:28:08;2.10;99.90
56542;DHT22;42438;53.174;6.730;2023-03-02T01:30:39;2.00;99.90
56542;DHT22;42438;53.174;6.730;2023-03-02T01:33:09;1.80;99.90
56542;DHT22;42438;53.174;6.730;2023-03-02T01:35:40;2.00;99.90
56542;DHT22;42438;53.174;6.730;2023-03-02T01:38:11;2.10;99.90
56542;DHT22;42438;53.174;6.730;2023-03-02T01:40:41;2.20;99.90
56542;DHT22;42438;53.174;6.730;2023-03-02T01:43:14;2.90;99.90
56542;DHT22;42438;53.174;6.730;2023-03-02T01:45:56;2.10;99.90
56542;DHT22;42438;53.174;6.730;2023-03-02T01:48:49;2.10;99.90
56542;DHT22;42438;53.174;6.730;2023-03-02T01:51:23;2.20;99.90
56542;DHT22;42438;53.174;6.730;2023-03-02T01:53:55;2.10;99.90
56542;DHT22;42438;53.174;6.730;2023-03-02T01:56:30;1.90;99.90
56542;DHT22;42438;53.174;6.730;2023-03-02T01:59:06;2.80;99.90
56542;DHT22;42438;53.174;6.730;2023-03-02T02:01:40;1.80;99.90
56542;DHT22;42438;53.174;6.730;2023-03-02T02:04:12;1.80;99.90
56542;DHT22;42438;53.174;6.730;2023-03-02T02:06:47;2.10;99.90
56542;DHT22;42438;53.174;6.730;2023-03-02T02:09:21;1.90;99.90
56542;DHT22;42438;53.174;6.730;2023-03-02T02:11:53;1.90;99.90
56542;DHT22;42438;53.174;6.730;2023-03-02T02:14:24;1.70;99.90
56542;DHT22;42438;53.174;6.730;2023-03-02T02:16:54;1.90;99.90
56542;DHT22;42438;53.174;6.730;2023-03-02T02:19:54;1.60;99.90
56542;DHT22;42438;53.174;6.730;2023-03-02T02:31:25;1.80;99.90
56542;DHT22;42438;53.174;6.730;2023-03-02T02:34:03;1.80;99.90
56542;DHT22;42438;53.174;6.730;2023-03-02T02:36:40;1.70;99.90
56542;DHT22;42438;53.174;6.730;2023-03-02T02:39:20;1.50;99.90
56542;DHT22;42438;53.174;6.730;2023-03-02T02:41:54;1.50;99.90
56542;DHT22;42438;53.174;6.730;2023-03-02T02:44:26;1.70;99.90
56542;DHT22;42438;53.174;6.730;2023-03-02T02:46:56;1.70;99.90
56542;DHT22;42438;53.174;6.730;2023-03-02T02:49:30;1.30;99.90
56542;DHT22;42438;53.174;6.730;2023-03-02T02:52:04;1.50;99.90
56542;DHT22;42438;53.174;6.730;2023-03-02T02:54:36;1.20;99.90
56542;DHT22;42438;53.174;6.730;2023-03-02T02:57:08;1.60;99.90
56542;DHT22;42438;53.174;6.730;2023-03-02T02:59:46;1.70;99.90
56542;DHT22;42438;53.174;6.730;2023-03-02T03:02:22;1.50;99.90
56542;DHT22;42438;53.174;6.730;2023-03-02T03:04:53;1.60;99.90
56542;DHT22;42438;53.174;6.730;2023-03-02T03:07:32;1.80;99.90
56542;DHT22;42438;53.174;6.730;2023-03-02T03:10:21;2.70;99.90
56542;DHT22;42438;53.174;6.730;2023-03-02T03:12:54;1.90;99.90
56542;DHT22;42438;53.174;6.730;2023-03-02T03:15:25;1.50;99.90
56542;DHT22;42438;53.174;6.730;2023-03-02T03:17:57;2.40;99.90
56542;DHT22;42438;53.174;6.730;2023-03-02T03:20:28;1.50;99.90
56542;DHT22;42438;53.174;6.730;2023-03-02T03:22:59;1.70;99.90
56542;DHT22;42438;53.174;6.730;2023-03-02T03:25:30;1.40;99.90
56542;DHT22;42438;53.174;6.730;2023-03-02T03:28:01;1.00;99.90
56542;DHT22;42438;53.174;6.730;2023-03-02T03:30:33;1.50;99.90
56542;DHT22;42438;53.174;6.730;2023-03-02T03:33:04;1.50;99.90
56542;DHT22;42438;53.174;6.730;2023-03-02T03:35:34;1.80;99.90
56542;DHT22;42438;53.174;6.730;2023-03-02T03:38:06;2.00;99.90
56542;DHT22;42438;53.174;6.730;2023-03-02T03:40:37;1.60;99.90
56542;DHT22;42438;53.174;6.730;2023-03-02T03:43:08;1.40;99.90
56542;DHT22;42438;53.174;6.730;2023-03-02T03:45:38;1.50;99.90
56542;DHT22;42438;53.174;6.730;2023-03-02T03:48:09;1.60;99.90
56542;DHT22;42438;53.174;6.730;2023-03-02T03:50:40;1.40;99.90
56542;DHT22;42438;53.174;6.730;2023-03-02T03:53:10;1.50;99.90
56542;DHT22;42438;53.174;6.730;2023-03-02T03:55:41;1.40;99.90
56542;DHT22;42438;53.174;6.730;2023-03-02T03:58:12;1.40;99.90
56542;DHT22;42438;53.174;6.730;2023-03-02T04:00:42;1.50;99.90
56542;DHT22;42438;53.174;6.730;2023-03-02T04:03:17;1.00;99.90
56542;DHT22;42438;53.174;6.730;2023-03-02T04:05:49;1.70;99.90
56542;DHT22;42438;53.174;6.730;2023-03-02T04:08:20;1.20;99.90
56542;DHT22;42438;53.174;6.730;2023-03-02T04:10:50;1.70;99.90
56542;DHT22;42438;53.174;6.730;2023-03-02T04:13:21;0.80;99.90
56542;DHT22;42438;53.174;6.730;2023-03-02T04:15:52;1.00;99.90
56542;DHT22;42438;53.174;6.730;2023-03-02T04:18:22;1.80;99.90
56542;DHT22;42438;53.174;6.730;2023-03-02T04:20:53;1.00;99.90
56542;DHT22;42438;53.174;6.730;2023-03-02T04:23:23;1.30;99.90
56542;DHT22;42438;53.174;6.730;2023-03-02T04:25:54;1.20;99.90
56542;DHT22;42438;53.174;6.730;2023-03-02T04:28:25;1.10;99.90
56542;DHT22;42438;53.174;6.730;2023-03-02T04:30:56;1.40;99.90
56542;DHT22;42438;53.174;6.730;2023-03-02T04:33:27;1.20;99.90
56542;DHT22;42438;53.174;6.730;2023-03-02T04:35:57;1.00;99.90
56542;DHT22;42438;53.174;6.730;2023-03-02T04:38:28;0.90;99.90
56542;DHT22;42438;53.174;6.730;2023-03-02T04:40:58;1.00;99.90
56542;DHT22;42438;53.174;6.730;2023-03-02T04:43:29;1.00;99.90
56542;DHT22;42438;53.174;6.730;2023-03-02T04:46:01;0.90;99.90
56542;DHT22;42438;53.174;6.730;2023-03-02T04:48:32;1.20;99.90
56542;DHT22;42438;53.174;6.730;2023-03-02T04:51:03;1.20;99.90
56542;DHT22;42438;53.174;6.730;2023-03-02T04:53:33;0.90;99.90
56542;DHT22;42438;53.174;6.730;2023-03-02T04:56:04;1.00;99.90
56542;DHT22;42438;53.174;6.730;2023-03-02T04:58:35;1.20;99.90
56542;DHT22;42438;53.174;6.730;2023-03-02T05:01:07;1.80;99.90
56542;DHT22;42438;53.174;6.730;2023-03-02T05:03:38;1.30;99.90
56542;DHT22;42438;53.174;6.730;2023-03-02T05:06:09;1.10;99.90
56542;DHT22;42438;53.174;6.730;2023-03-02T05:08:41;1.30;99.90
56542;DHT22;42438;53.174;6.730;2023-03-02T05:11:13;1.10;99.90
56542;DHT22;42438;53.174;6.730;2023-03-02T05:13:57;1.20;99.90
56542;DHT22;42438;53.174;6.730;2023-03-02T05:16:30;1.00;99.90
56542;DHT22;42438;53.174;6.730;2023-03-02T05:19:03;1.30;99.90
56542;DHT22;42438;53.174;6.730;2023-03-02T05:21:34;1.30;99.90
56542;DHT22;42438;53.174;6.730;2023-03-02T05:24:05;1.20;99.90
56542;DHT22;42438;53.174;6.730;2023-03-02T05:26:37;1.20;99.90
56542;DHT22;42438;53.174;6.730;2023-03-02T05:29:08;1.20;99.90
56542;DHT22;42438;53.174;6.730;2023-03-02T05:31:41;0.90;99.90
56542;DHT22;42438;53.174;6.730;2023-03-02T05:34:14;1.10;99.90
56542;DHT22;42438;53.174;6.730;2023-03-02T05:36:46;1.20;99.90
56542;DHT22;42438;53.174;6.730;2023-03-02T05:39:16;0.90;99.90
56542;DHT22;42438;53.174;6.730;2023-03-02T05:41:47;1.00;99.90
56542;DHT22;42438;53.174;6.730;2023-03-02T05:44:18;0.80;99.90
56542;DHT22;42438;53.174;6.730;2023-03-02T05:46:48;1.20;99.90
56542;DHT22;42438;53.174;6.730;2023-03-02T05:49:19;1.00;99.90
56542;DHT22;42438;53.174;6.730;2023-03-02T05:51:50;1.50;99.90
56542;DHT22;42438;53.174;6.730;2023-03-02T05:54:20;0.80;99.90
56542;DHT22;42438;53.174;6.730;2023-03-02T05:56:51;1.00;99.90
56542;DHT22;42438;53.174;6.730;2023-03-02T05:59:22;1.50;99.90
56542;DHT22;42438;53.174;6.730;2023-03-02T06:01:53;1.00;99.90
56542;DHT22;42438;53.174;6.730;2023-03-02T06:04:28;0.90;99.90
56542;DHT22;42438;53.174;6.730;2023-03-02T06:06:58;1.20;99.90
56542;DHT22;42438;53.174;6.730;2023-03-02T06:09:29;2.00;99.90
56542;DHT22;42438;53.174;6.730;2023-03-02T06:12:00;1.00;99.90
56542;DHT22;42438;53.174;6.730;2023-03-02T06:14:31;1.80;99.90
56542;DHT22;42438;53.174;6.730;2023-03-02T06:17:02;1.00;99.90
56542;DHT22;42438;53.174;6.730;2023-03-02T06:19:32;1.80;99.90
56542;DHT22;42438;53.174;6.730;2023-03-02T06:22:03;1.30;99.90
56542;DHT22;42438;53.174;6.730;2023-03-02T06:24:34;1.40;99.90
56542;DHT22;42438;53.174;6.730;2023-03-02T06:27:05;1.00;99.90
56542;DHT22;42438;53.174;6.730;2023-03-02T06:29:35;1.20;99.90
56542;DHT22;42438;53.174;6.730;2023-03-02T06:32:06;1.10;99.90
56542;DHT22;42438;53.174;6.730;2023-03-02T06:34:37;1.10;99.90
56542;DHT22;42438;53.174;6.730;2023-03-02T06:37:07;0.70;99.90
56542;DHT22;42438;53.174;6.730;2023-03-02T06:39:38;0.90;99.90
56542;DHT22;42438;53.174;6.730;2023-03-02T06:42:09;0.90;99.90
56542;DHT22;42438;53.174;6.730;2023-03-02T06:44:39;1.20;99.90
56542;DHT22;42438;53.174;6.730;2023-03-02T06:47:10;1.50;99.90
56542;DHT22;42438;53.174;6.730;2023-03-02T06:49:41;1.60;99.90
56542;DHT22;42438;53.174;6.730;2023-03-02T06:52:11;1.60;99.90
56542;DHT22;42438;53.174;6.730;2023-03-02T06:54:43;1.60;99.90
56542;DHT22;42438;53.174;6.730;2023-03-02T06:57:14;1.20;99.90
56542;DHT22;42438;53.174;6.730;2023-03-02T06:59:44;0.70;99.90
56542;DHT22;42438;53.174;6.730;2023-03-02T07:02:15;0.70;99.90
56542;DHT22;42438;53.174;6.730;2023-03-02T07:04:46;0.70;99.90
56542;DHT22;42438;53.174;6.730;2023-03-02T07:07:17;0.90;99.90
56542;DHT22;42438;53.174;6.730;2023-03-02T07:09:47;1.50;99.90
56542;DHT22;42438;53.174;6.730;2023-03-02T07:12:18;1.50;99.90
56542;DHT22;42438;53.174;6.730;2023-03-02T07:14:48;0.70;99.90
56542;DHT22;42438;53.174;6.730;2023-03-02T07:17:19;0.90;99.90
56542;DHT22;42438;53.174;6.730;2023-03-02T07:19:50;0.80;99.90
56542;DHT22;42438;53.174;6.730;2023-03-02T07:22:21;0.60;99.90
56542;DHT22;42438;53.174;6.730;2023-03-02T07:24:52;0.60;99.90
56542;DHT22;42438;53.174;6.730;2023-03-02T07:27:22;0.70;99.90
56542;DHT22;42438;53.174;6.730;2023-03-02T07:29:53;1.60;99.90
56542;DHT22;42438;53.174;6.730;2023-03-02T07:32:24;1.20;99.90
56542;DHT22;42438;53.174;6.730;2023-03-02T07:34:54;1.10;99.90
56542;DHT22;42438;53.174;6.730;2023-03-02T07:37:25;1.50;99.90
56542;DHT22;42438;53.174;6.730;2023-03-02T07:39:56;1.00;99.90
56542;DHT22;42438;53.174;6.730;2023-03-02T07:42:26;1.00;99.90
56542;DHT22;42438;53.174;6.730;2023-03-02T07:44:57;0.70;99.90
56542;DHT22;42438;53.174;6.730;2023-03-02T07:47:28;1.50;99.90
56542;DHT22;42438;53.174;6.730;2023-03-02T07:49:58;0.80;99.90
56542;DHT22;42438;53.174;6.730;2023-03-02T07:52:29;1.00;99.90
56542;DHT22;42438;53.174;6.730;2023-03-02T07:55:00;0.80;99.90
56542;DHT22;42438;53.174;6.730;2023-03-02T07:57:31;0.80;99.90
56542;DHT22;42438;53.174;6.730;2023-03-02T08:00:02;0.80;99.90
56542;DHT22;42438;53.174;6.730;2023-03-02T08:02:33;1.70;99.90
56542;DHT22;42438;53.174;6.730;2023-03-02T08:05:04;2.20;99.90
56542;DHT22;42438;53.174;6.730;2023-03-02T08:07:34;1.10;99.90
56542;DHT22;42438;53.174;6.730;2023-03-02T08:10:05;1.20;99.90
56542;DHT22;42438;53.174;6.730;2023-03-02T08:12:36;1.10;99.90
56542;DHT22;42438;53.174;6.730;2023-03-02T08:15:08;1.30;99.90
56542;DHT22;42438;53.174;6.730;2023-03-02T08:17:39;1.10;99.90
56542;DHT22;42438;53.174;6.730;2023-03-02T08:20:10;1.40;99.90
56542;DHT22;42438;53.174;6.730;2023-03-02T08:22:41;1.30;99.90
56542;DHT22;42438;53.174;6.730;2023-03-02T08:25:11;1.30;99.90
56542;DHT22;42438;53.174;6.730;2023-03-02T08:27:45;1.80;99.90
56542;DHT22;42438;53.174;6.730;2023-03-02T08:30:16;2.10;99.90
56542;DHT22;42438;53.174;6.730;2023-03-02T08:32:46;1.30;99.90
56542;DHT22;42438;53.174;6.730;2023-03-02T08:35:17;1.80;99.90
56542;DHT22;42438;53.174;6.730;2023-03-02T08:37:48;1.60;99.90
56542;DHT22;42438;53.174;6.730;2023-03-02T08:40:19;1.50;99.90
56542;DHT22;42438;53.174;6.730;2023-03-02T08:42:49;1.60;99.90
56542;DHT22;42438;53.174;6.730;2023-03-02T08:45:26;1.80;99.90
56542;DHT22;42438;53.174;6.730;2023-03-02T08:47:56;1.90;99.90
56542;DHT22;42438;53.174;6.730;2023-03-02T08:50:27;1.80;99.90
56542;DHT22;42438;53.174;6.730;2023-03-02T08:52:58;1.80;99.90
56542;DHT22;42438;53.174;6.730;2023-03-02T08:55:28;1.90;99.90
56542;DHT22;42438;53.174;6.730;2023-03-02T08:57:59;1.90;99.90
56542;DHT22;42438;53.174;6.730;2023-03-02T09:00:30;1.80;99.90
56542;DHT22;42438;53.174;6.730;2023-03-02T09:03:00;2.00;99.90
56542;DHT22;42438;53.174;6.730;2023-03-02T09:05:31;2.10;99.90
56542;DHT22;42438;53.174;6.730;2023-03-02T09:08:02;2.40;99.90
56542;DHT22;42438;53.174;6.730;2023-03-02T09:10:34;2.40;99.90
56542;DHT22;42438;53.174;6.730;2023-03-02T09:13:05;2.40;99.90
56542;DHT22;42438;53.174;6.730;2023-03-02T09:15:35;2.40;99.90
56542;DHT22;42438;53.174;6.730;2023-03-02T09:18:06;2.50;99.90
56542;DHT22;42438;53.174;6.730;2023-03-02T09:20:37;2.30;99.90
56542;DHT22;42438;53.174;6.730;2023-03-02T09:23:07;3.00;99.90
56542;DHT22;42438;53.174;6.730;2023-03-02T09:25:38;2.70;99.90
56542;DHT22;42438;53.174;6.730;2023-03-02T09:28:10;2.40;99.90
56542;DHT22;42438;53.174;6.730;2023-03-02T09:30:46;2.20;99.90
56542;DHT22;42438;53.174;6.730;2023-03-02T09:33:17;2.20;99.90
56542;DHT22;42438;53.174;6.730;2023-03-02T09:35:48;2.30;99.90
56542;DHT22;42438;53.174;6.730;2023-03-02T09:38:19;2.70;99.90
56542;DHT22;42438;53.174;6.730;2023-03-02T09:54:22;2.50;99.90
56542;DHT22;42438;53.174;6.730;2023-03-02T09:56:57;2.50;99.90
56542;DHT22;42438;53.174;6.730;2023-03-02T09:59:41;2.60;99.90
56542;DHT22;42438;53.174;6.730;2023-03-02T10:02:29;2.70;99.90
56542;DHT22;42438;53.174;6.730;2023-03-02T10:05:06;2.70;99.90
56542;DHT22;42438;53.174;6.730;2023-03-02T10:07:43;2.70;99.90
56542;DHT22;42438;53.174;6.730;2023-03-02T10:12:52;2.90;99.90
56542;DHT22;42438;53.174;6.730;2023-03-02T10:20:59;3.20;99.90
56542;DHT22;42438;53.174;6.730;2023-03-02T10:23:54;3.00;99.90
56542;DHT22;42438;53.174;6.730;2023-03-02T10:32:22;3.60;99.90
56542;DHT22;42438;53.174;6.730;2023-03-02T10:34:53;4.10;99.90
56542;DHT22;42438;53.174;6.730;2023-03-02T10:37:28;4.20;99.90
56542;DHT22;42438;53.174;6.730;2023-03-02T10:39:59;4.40;99.90
56542;DHT22;42438;53.174;6.730;2023-03-02T10:42:37;4.60;99.90
56542;DHT22;42438;53.174;6.730;2023-03-02T10:45:30;4.80;99.90
56542;DHT22;42438;53.174;6.730;2023-03-02T10:48:11;5.00;99.90
56542;DHT22;42438;53.174;6.730;2023-03-02T10:50:42;5.10;99.90
56542;DHT22;42438;53.174;6.730;2023-03-02T10:53:16;5.30;99.90
56542;DHT22;42438;53.174;6.730;2023-03-02T10:55:49;5.40;99.90
56542;DHT22;42438;53.174;6.730;2023-03-02T10:58:21;5.50;99.90
56542;DHT22;42438;53.174;6.730;2023-03-02T11:01:04;5.50;99.90
56542;DHT22;42438;53.174;6.730;2023-03-02T11:03:35;5.60;99.90
56542;DHT22;42438;53.174;6.730;2023-03-02T11:06:16;5.80;99.90
56542;DHT22;42438;53.174;6.730;2023-03-02T11:09:04;5.80;99.90
56542;DHT22;42438;53.174;6.730;2023-03-02T11:11:35;5.90;99.90
56542;DHT22;42438;53.174;6.730;2023-03-02T11:14:15;6.10;99.90
56542;DHT22;42438;53.174;6.730;2023-03-02T11:16:46;6.40;99.90
56542;DHT22;42438;53.174;6.730;2023-03-02T11:19:30;6.50;99.90
56542;DHT22;42438;53.174;6.730;2023-03-02T11:22:37;6.70;99.90
56542;DHT22;42438;53.174;6.730;2023-03-02T11:25:38;6.80;99.90
56542;DHT22;42438;53.174;6.730;2023-03-02T11:28:21;6.70;99.90
56542;DHT22;42438;53.174;6.730;2023-03-02T11:30:56;6.40;99.90
56542;DHT22;42438;53.174;6.730;2023-03-02T11:42:35;6.40;99.90
56542;DHT22;42438;53.174;6.730;2023-03-02T11:50:25;5.70;99.90
56542;DHT22;42438;53.174;6.730;2023-03-02T11:52:58;5.50;99.90
56542;DHT22;42438;53.174;6.730;2023-03-02T11:55:34;5.40;99.90
56542;DHT22;42438;53.174;6.730;2023-03-02T11:58:18;5.30;99.90
56542;DHT22;42438;53.174;6.730;2023-03-02T12:00:50;5.10;99.90
56542;DHT22;42438;53.174;6.730;2023-03-02T12:06:45;5.70;99.90
56542;DHT22;42438;53.174;6.730;2023-03-02T12:11:58;5.80;99.90
56542;DHT22;42438;53.174;6.730;2023-03-02T12:14:39;5.90;99.90
56542;DHT22;42438;53.174;6.730;2023-03-02T12:17:29;6.00;99.90
56542;DHT22;42438;53.174;6.730;2023-03-02T12:22:37;6.10;99.90
56542;DHT22;42438;53.174;6.730;2023-03-02T12:27:51;6.00;99.90
56542;DHT22;42438;53.174;6.730;2023-03-02T12:30:26;5.90;99.90
56542;DHT22;42438;53.174;6.730;2023-03-02T12:35:34;5.70;99.90
56542;DHT22;42438;53.174;6.730;2023-03-02T12:44:25;6.30;99.90
56542;DHT22;42438;53.174;6.730;2023-03-02T12:47:01;6.40;99.90
56542;DHT22;42438;53.174;6.730;2023-03-02T12:50:05;6.40;99.90
56542;DHT22;42438;53.174;6.730;2023-03-02T12:52:35;6.20;99.90
56542;DHT22;42438;53.174;6.730;2023-03-02T12:55:14;6.10;99.90
56542;DHT22;42438;53.174;6.730;2023-03-02T12:57:50;6.00;99.90
56542;DHT22;42438;53.174;6.730;2023-03-02T13:00:24;6.10;99.90
56542;DHT22;42438;53.174;6.730;2023-03-02T13:02:57;6.20;99.90
56542;DHT22;42438;53.174;6.730;2023-03-02T13:05:30;6.40;99.90
56542;DHT22;42438;53.174;6.730;2023-03-02T13:08:03;6.60;99.90
56542;DHT22;42438;53.174;6.730;2023-03-02T13:16:06;7.10;99.90
56542;DHT22;42438;53.174;6.730;2023-03-02T13:18:48;7.20;99.90
56542;DHT22;42438;53.174;6.730;2023-03-02T13:21:34;7.30;99.90
56542;DHT22;42438;53.174;6.730;2023-03-02T13:24:32;7.40;99.90
56542;DHT22;42438;53.174;6.730;2023-03-02T13:27:05;7.60;99.90
56542;DHT22;42438;53.174;6.730;2023-03-02T13:29:36;7.60;99.90
56542;DHT22;42438;53.174;6.730;2023-03-02T13:32:24;7.60;99.90
56542;DHT22;42438;53.174;6.730;2023-03-02T13:34:59;7.70;99.90
56542;DHT22;42438;53.174;6.730;2023-03-02T13:37:39;7.60;99.90
56542;DHT22;42438;53.174;6.730;2023-03-02T13:42:53;7.40;99.90
56542;DHT22;42438;53.174;6.730;2023-03-02T13:45:28;7.40;99.90
56542;DHT22;42438;53.174;6.730;2023-03-02T13:48:11;7.40;99.90
56542;DHT22;42438;53.174;6.730;2023-03-02T13:50:54;7.50;99.90
56542;DHT22;42438;53.174;6.730;2023-03-02T13:53:27;7.60;99.90
56542;DHT22;42438;53.174;6.730;2023-03-02T13:55:59;7.70;99.90
56542;DHT22;42438;53.174;6.730;2023-03-02T13:58:35;7.70;99.90
56542;DHT22;42438;53.174;6.730;2023-03-02T14:01:09;7.70;99.90
56542;DHT22;42438;53.174;6.730;2023-03-02T14:03:40;7.80;99.90
56542;DHT22;42438;53.174;6.730;2023-03-02T14:06:11;7.90;99.90
56542;DHT22;42438;53.174;6.730;2023-03-02T14:08:41;8.00;99.90
56542;DHT22;42438;53.174;6.730;2023-03-02T14:11:13;8.00;99.90
56542;DHT22;42438;53.174;6.730;2023-03-02T14:13:51;8.10;99.90
56542;DHT22;42438;53.174;6.730;2023-03-02T14:16:23;8.20;99.90
56542;DHT22;42438;53.174;6.730;2023-03-02T14:18:53;8.30;99.90
56542;DHT22;42438;53.174;6.730;2023-03-02T14:21:25;8.30;99.90
56542;DHT22;42438;53.174;6.730;2023-03-02T14:23:56;8.30;99.90
56542;DHT22;42438;53.174;6.730;2023-03-02T14:26:32;8.30;99.90
56542;DHT22;42438;53.174;6.730;2023-03-02T14:29:18;8.20;99.90
56542;DHT22;42438;53.174;6.730;2023-03-02T14:31:50;8.10;99.90
56542;DHT22;42438;53.174;6.730;2023-03-02T14:34:21;8.00;99.90
56542;DHT22;42438;53.174;6.730;2023-03-02T14:36:54;8.00;99.90
56542;DHT22;42438;53.174;6.730;2023-03-02T14:39:42;7.90;99.90
56542;DHT22;42438;53.174;6.730;2023-03-02T14:42:17;7.90;99.90
56542;DHT22;42438;53.174;6.730;2023-03-02T14:44:49;7.90;99.90
56542;DHT22;42438;53.174;6.730;2023-03-02T14:47:20;7.90;99.90
56542;DHT22;42438;53.174;6.730;2023-03-02T14:49:51;7.80;99.90
56542;DHT22;42438;53.174;6.730;2023-03-02T14:55:04;7.70;99.90
56542;DHT22;42438;53.174;6.730;2023-03-02T14:57:36;7.60;99.90
56542;DHT22;42438;53.174;6.730;2023-03-02T15:00:13;7.50;99.90
56542;DHT22;42438;53.174;6.730;2023-03-02T15:02:44;7.50;99.90
56542;DHT22;42438;53.174;6.730;2023-03-02T15:05:15;7.40;99.90
56542;DHT22;42438;53.174;6.730;2023-03-02T15:07:47;7.40;99.90
56542;DHT22;42438;53.174;6.730;2023-03-02T15:10:19;7.30;99.90
56542;DHT22;42438;53.174;6.730;2023-03-02T15:12:50;7.30;99.90
56542;DHT22;42438;53.174;6.730;2023-03-02T15:15:21;7.40;99.90
56542;DHT22;42438;53.174;6.730;2023-03-02T15:17:52;7.40;99.90
56542;DHT22;42438;53.174;6.730;2023-03-02T15:20:22;7.30;99.90
56542;DHT22;42438;53.174;6.730;2023-03-02T15:22:53;7.20;99.90
56542;DHT22;42438;53.174;6.730;2023-03-02T15:25:24;7.10;99.90
56542;DHT22;42438;53.174;6.730;2023-03-02T15:27:58;7.10;99.90
56542;DHT22;42438;53.174;6.730;2023-03-02T15:30:29;7.00;99.90
56542;DHT22;42438;53.174;6.730;2023-03-02T15:33:00;7.10;99.90
56542;DHT22;42438;53.174;6.730;2023-03-02T15:35:30;7.00;99.90
56542;DHT22;42438;53.174;6.730;2023-03-02T15:38:01;6.90;99.90
56542;DHT22;42438;53.174;6.730;2023-03-02T15:40:35;6.70;99.90
56542;DHT22;42438;53.174;6.730;2023-03-02T15:43:06;6.70;99.90
56542;DHT22;42438;53.174;6.730;2023-03-02T15:45:36;6.60;99.90
56542;DHT22;42438;53.174;6.730;2023-03-02T15:48:07;6.50;99.90
56542;DHT22;42438;53.174;6.730;2023-03-02T15:50:38;6.40;99.90
56542;DHT22;42438;53.174;6.730;2023-03-02T15:53:08;6.30;99.90
56542;DHT22;42438;53.174;6.730;2023-03-02T15:55:39;6.20;99.90
56542;DHT22;42438;53.174;6.730;2023-03-02T15:58:11;6.20;99.90
56542;DHT22;42438;53.174;6.730;2023-03-02T16:00:41;6.00;99.90
56542;DHT22;42438;53.174;6.730;2023-03-02T16:03:12;6.00;99.90
56542;DHT22;42438;53.174;6.730;2023-03-02T16:05:44;5.90;99.90
56542;DHT22;42438;53.174;6.730;2023-03-02T16:08:14;5.80;99.90
56542;DHT22;42438;53.174;6.730;2023-03-02T16:10:57;5.80;99.90
56542;DHT22;42438;53.174;6.730;2023-03-02T16:13:29;5.70;99.90
56542;DHT22;42438;53.174;6.730;2023-03-02T16:16:04;5.70;99.90
56542;DHT22;42438;53.174;6.730;2023-03-02T16:18:35;5.60;99.90
56542;DHT22;42438;53.174;6.730;2023-03-02T16:21:10;5.50;99.90
56542;DHT22;42438;53.174;6.730;2023-03-02T16:23:42;5.40;99.90
56542;DHT22;42438;53.174;6.730;2023-03-02T16:26:16;5.30;99.90
56542;DHT22;42438;53.174;6.730;2023-03-02T16:28:48;5.30;99.90
56542;DHT22;42438;53.174;6.730;2023-03-02T16:31:19;5.20;99.90
56542;DHT22;42438;53.174;6.730;2023-03-02T16:33:51;5.10;99.90
56542;DHT22;42438;53.174;6.730;2023-03-02T16:36:22;5.10;99.90
56542;DHT22;42438;53.174;6.730;2023-03-02T16:38:53;5.00;99.90
56542;DHT22;42438;53.174;6.730;2023-03-02T16:41:24;4.90;99.90
56542;DHT22;42438;53.174;6.730;2023-03-02T16:43:56;4.90;99.90
56542;DHT22;42438;53.174;6.730;2023-03-02T16:46:30;4.80;99.90
56542;DHT22;42438;53.174;6.730;2023-03-02T16:49:02;4.70;99.90
56542;DHT22;42438;53.174;6.730;2023-03-02T16:51:33;4.60;99.90
56542;DHT22;42438;53.174;6.730;2023-03-02T16:54:04;4.60;99.90
56542;DHT22;42438;53.174;6.730;2023-03-02T16:56:35;4.40;99.90
56542;DHT22;42438;53.174;6.730;2023-03-02T16:59:05;4.30;99.90
56542;DHT22;42438;53.174;6.730;2023-03-02T17:01:36;4.30;99.90
56542;DHT22;42438;53.174;6.730;2023-03-02T17:04:07;4.10;99.90
56542;DHT22;42438;53.174;6.730;2023-03-02T17:06:41;4.10;99.90
56542;DHT22;42438;53.174;6.730;2023-03-02T17:09:12;4.00;99.90
56542;DHT22;42438;53.174;6.730;2023-03-02T17:11:43;3.90;99.90
56542;DHT22;42438;53.174;6.730;2023-03-02T17:14:14;3.80;99.90
56542;DHT22;42438;53.174;6.730;2023-03-02T17:16:44;3.70;99.90
56542;DHT22;42438;53.174;6.730;2023-03-02T17:19:15;3.60;99.90
56542;DHT22;42438;53.174;6.730;2023-03-02T17:21:46;3.60;99.90
56542;DHT22;42438;53.174;6.730;2023-03-02T17:24:16;3.50;99.90
56542;DHT22;42438;53.174;6.730;2023-03-02T17:26:47;3.70;99.90
56542;DHT22;42438;53.174;6.730;2023-03-02T17:29:18;3.40;99.90
56542;DHT22;42438;53.174;6.730;2023-03-02T17:31:48;3.30;99.90
56542;DHT22;42438;53.174;6.730;2023-03-02T17:34:19;3.20;99.90
56542;DHT22;42438;53.174;6.730;2023-03-02T17:36:50;3.10;99.90
56542;DHT22;42438;53.174;6.730;2023-03-02T17:39:21;3.10;99.90
56542;DHT22;42438;53.174;6.730;2023-03-02T17:41:52;2.90;99.90
56542;DHT22;42438;53.174;6.730;2023-03-02T17:44:23;3.00;99.90